Daisin Maru — JD3340 — position and weather

sailwx.info

Track history (hours):
 
Tides and Currents Weather Stations Pressure Air Temp Water Temp Dewpoint Dewpoint Depression Visibility Wind Speed Wind Dir Waves Ship Positions

Daisin Maru

Last reported at 2017-Nov-11 01:09 UTC. Time now 2017-Nov-21 11:47 UTC.
Position N 34°37' E 134°56'.
Warning: this ship's position is 10 days out of date.

Length 59 m; draft 3.5 m.

Type: Cargo ship. MMSI: 431003459.

Date/timePositionNaut miles runAvg speedWind from/ knotsBaromVisibWave heightAir tempDewpointWater temp
2017-Nov-11 01:09N 34°37' E 134°56'410.5
2017-Nov-11 00:46N 34°37' E 135°01'3 9.3
2017-Nov-11 00:30N 34°36' E 135°04'510.7
2017-Nov-11 00:00N 34°37' E 135°10'510.9
2017-Nov-10 23:30N 34°38' E 135°17'510.5
2017-Nov-10 23:00N 34°38' E 135°23'4 7.3
2017-Nov-10 22:29N 34°39' E 135°28'0 0.0
2017-Nov-10 21:58N 34°39' E 135°28'0 0.0
2017-Nov-10 21:28N 34°39' E 135°28'0 0.0
2017-Nov-10 20:58N 34°39' E 135°28'0 0.0
2017-Nov-10 20:16N 34°39' E 135°28'0 0.0
2017-Nov-10 19:58N 34°39' E 135°28'0 0.0
2017-Nov-10 19:28N 34°39' E 135°28'0 0.0
2017-Nov-10 18:58N 34°39' E 135°28'0 0.0
2017-Nov-10 18:28N 34°39' E 135°28'0 0.0
2017-Nov-10 17:40N 34°39' E 135°28'0 0.0
2017-Nov-10 17:28N 34°39' E 135°28'0 0.0
2017-Nov-10 16:58N 34°39' E 135°28'0 0.0
2017-Nov-10 15:58N 34°39' E 135°28'0 0.0
2017-Nov-10 15:22N 34°39' E 135°28'0 0.0
2017-Nov-10 14:58N 34°39' E 135°28'0 0.0
2017-Nov-10 13:04N 34°39' E 135°28'0 0.0
2017-Nov-10 12:52N 34°39' E 135°28'0 0.0
2017-Nov-10 12:28N 34°39' E 135°28'0 0.0
2017-Nov-10 11:58N 34°39' E 135°28'0 0.0
2017-Nov-10 11:28N 34°39' E 135°28'0 0.0
2017-Nov-10 10:58N 34°39' E 135°28'0 0.0
2017-Nov-10 10:16N 34°39' E 135°28'0 0.0
2017-Nov-10 01:10N 34°39' E 135°28'0 0.0
2017-Nov-10 00:46N 34°39' E 135°28'0 0.0
2017-Nov-10 00:28N 34°39' E 135°28'0 0.0
2017-Nov-09 23:58N 34°39' E 135°28'0 0.0
2017-Nov-09 23:22N 34°39' E 135°28'0 0.0
2017-Nov-09 22:34N 34°39' E 135°28'0 0.0
2017-Nov-09 22:28N 34°39' E 135°28'0 0.0
2017-Nov-09 21:52N 34°39' E 135°28'0 0.0
2017-Nov-09 21:22N 34°39' E 135°28'0 0.0
2017-Nov-09 20:58N 34°39' E 135°28'0 0.0
2017-Nov-09 20:28N 34°39' E 135°28'0 0.0
2017-Nov-09 19:58N 34°39' E 135°28'0 0.0
2017-Nov-09 19:28N 34°39' E 135°28'0 0.0
2017-Nov-09 18:58N 34°39' E 135°28'0 0.0
2017-Nov-09 18:28N 34°39' E 135°28'0 0.0
2017-Nov-09 17:58N 34°39' E 135°28'0 0.0
2017-Nov-09 17:28N 34°39' E 135°28'0 0.0
2017-Nov-09 16:52N 34°39' E 135°28'0 0.0
2017-Nov-09 16:16N 34°39' E 135°28'0 0.0
2017-Nov-09 15:52N 34°39' E 135°28'0 0.0
2017-Nov-09 15:28N 34°39' E 135°28'0 0.0
2017-Nov-09 14:58N 34°39' E 135°28'0 0.0
2017-Nov-09 14:28N 34°39' E 135°28'0 0.0
2017-Nov-09 13:58N 34°39' E 135°28'0 0.0
2017-Nov-09 13:28N 34°39' E 135°28'0 0.0
2017-Nov-09 12:52N 34°39' E 135°28'0 0.0
2017-Nov-09 12:28N 34°39' E 135°28'0 0.0
2017-Nov-09 12:00N 34°39' E 135°28'1 1.2
2017-Nov-09 11:30N 34°39' E 135°27'3 6.9
2017-Nov-09 11:00N 34°38' E 135°23'5 9.6
2017-Nov-09 10:30N 34°36' E 135°18'5 9.5
2017-Nov-09 10:00N 34°35' E 135°12'510.3
2017-Nov-09 09:30N 34°35' E 135°06'3 0.1
2017-Nov-08 07:23N 34°36' E 135°03'4 9.7
2017-Nov-08 07:00N 34°35' E 135°08'510.9
2017-Nov-08 06:30N 34°34' E 135°14'910.6
2017-Nov-08 05:41N 34°27' E 135°21'0 0.0
2017-Nov-07 16:41N 34°27' E 135°21'0 0.4
2017-Nov-07 16:30N 34°27' E 135°21'2 5.0
2017-Nov-07 16:00N 34°29' E 135°19'510.2
2017-Nov-07 15:30N 34°32' E 135°14'510.0
2017-Nov-07 15:00N 34°35' E 135°09'510.2
2017-Nov-07 14:30N 34°36' E 135°03'6 8.3
2017-Nov-07 13:44N 34°36' E 134°55'  
Track history (hours):
 
Tides and Currents Weather Stations Pressure Air Temp Water Temp Dewpoint Dewpoint Depression Visibility Wind Speed Wind Dir Waves Ship Positions

Daisin Maru

Last reported at 2017-Nov-11 01:09 UTC. Time now 2017-Nov-21 11:47 UTC.
Position N 34°37' E 134°56'.
Warning: this ship's position is 10 days out of date.

Length 59 m; draft 3.5 m.

Type: Cargo ship. MMSI: 431003459.

Date/timePositionNaut miles runAvg speedWind from/ knotsBaromVisibWave heightAir tempDewpointWater temp
2017-Nov-11 01:09N 34°37' E 134°56'410.5
2017-Nov-11 00:46N 34°37' E 135°01'3 9.3
2017-Nov-11 00:30N 34°36' E 135°04'510.7
2017-Nov-11 00:00N 34°37' E 135°10'510.9
2017-Nov-10 23:30N 34°38' E 135°17'510.5
2017-Nov-10 23:00N 34°38' E 135°23'4 7.3
2017-Nov-10 22:29N 34°39' E 135°28'0 0.0
2017-Nov-10 21:58N 34°39' E 135°28'0 0.0
2017-Nov-10 21:28N 34°39' E 135°28'0 0.0
2017-Nov-10 20:58N 34°39' E 135°28'0 0.0
2017-Nov-10 20:16N 34°39' E 135°28'0 0.0
2017-Nov-10 19:58N 34°39' E 135°28'0 0.0
2017-Nov-10 19:28N 34°39' E 135°28'0 0.0
2017-Nov-10 18:58N 34°39' E 135°28'0 0.0
2017-Nov-10 18:28N 34°39' E 135°28'0 0.0
2017-Nov-10 17:40N 34°39' E 135°28'0 0.0
2017-Nov-10 17:28N 34°39' E 135°28'0 0.0
2017-Nov-10 16:58N 34°39' E 135°28'0 0.0
2017-Nov-10 15:58N 34°39' E 135°28'0 0.0
2017-Nov-10 15:22N 34°39' E 135°28'0 0.0
2017-Nov-10 14:58N 34°39' E 135°28'0 0.0
2017-Nov-10 13:04N 34°39' E 135°28'0 0.0
2017-Nov-10 12:52N 34°39' E 135°28'0 0.0
2017-Nov-10 12:28N 34°39' E 135°28'0 0.0
2017-Nov-10 11:58N 34°39' E 135°28'0 0.0
2017-Nov-10 11:28N 34°39' E 135°28'0 0.0
2017-Nov-10 10:58N 34°39' E 135°28'0 0.0
2017-Nov-10 10:16N 34°39' E 135°28'0 0.0
2017-Nov-10 01:10N 34°39' E 135°28'0 0.0
2017-Nov-10 00:46N 34°39' E 135°28'0 0.0
2017-Nov-10 00:28N 34°39' E 135°28'0 0.0
2017-Nov-09 23:58N 34°39' E 135°28'0 0.0
2017-Nov-09 23:22N 34°39' E 135°28'0 0.0
2017-Nov-09 22:34N 34°39' E 135°28'0 0.0
2017-Nov-09 22:28N 34°39' E 135°28'0 0.0
2017-Nov-09 21:52N 34°39' E 135°28'0 0.0
2017-Nov-09 21:22N 34°39' E 135°28'0 0.0
2017-Nov-09 20:58N 34°39' E 135°28'0 0.0
2017-Nov-09 20:28N 34°39' E 135°28'0 0.0
2017-Nov-09 19:58N 34°39' E 135°28'0 0.0
2017-Nov-09 19:28N 34°39' E 135°28'0 0.0
2017-Nov-09 18:58N 34°39' E 135°28'0 0.0
2017-Nov-09 18:28N 34°39' E 135°28'0 0.0
2017-Nov-09 17:58N 34°39' E 135°28'0 0.0
2017-Nov-09 17:28N 34°39' E 135°28'0 0.0
2017-Nov-09 16:52N 34°39' E 135°28'0 0.0
2017-Nov-09 16:16N 34°39' E 135°28'0 0.0
2017-Nov-09 15:52N 34°39' E 135°28'0 0.0
2017-Nov-09 15:28N 34°39' E 135°28'0 0.0
2017-Nov-09 14:58N 34°39' E 135°28'0 0.0
2017-Nov-09 14:28N 34°39' E 135°28'0 0.0
2017-Nov-09 13:58N 34°39' E 135°28'0 0.0
2017-Nov-09 13:28N 34°39' E 135°28'0 0.0
2017-Nov-09 12:52N 34°39' E 135°28'0 0.0
2017-Nov-09 12:28N 34°39' E 135°28'0 0.0
2017-Nov-09 12:00N 34°39' E 135°28'1 1.2
2017-Nov-09 11:30N 34°39' E 135°27'3 6.9
2017-Nov-09 11:00N 34°38' E 135°23'5 9.6
2017-Nov-09 10:30N 34°36' E 135°18'5 9.5
2017-Nov-09 10:00N 34°35' E 135°12'510.3
2017-Nov-09 09:30N 34°35' E 135°06'3 0.1
2017-Nov-08 07:23N 34°36' E 135°03'4 9.7
2017-Nov-08 07:00N 34°35' E 135°08'510.9
2017-Nov-08 06:30N 34°34' E 135°14'910.6
2017-Nov-08 05:41N 34°27' E 135°21'0 0.0
2017-Nov-07 16:41N 34°27' E 135°21'0 0.4
2017-Nov-07 16:30N 34°27' E 135°21'2 5.0
2017-Nov-07 16:00N 34°29' E 135°19'510.2
2017-Nov-07 15:30N 34°32' E 135°14'510.0
2017-Nov-07 15:00N 34°35' E 135°09'510.2
2017-Nov-07 14:30N 34°36' E 135°03'6 8.3
2017-Nov-07 13:44N 34°36' E 134°55'  

Dump ship's entire track history